This is the latest recevied weather packets stored in our database for station/object 9M2SES-13. If no packets are shown the sender has not sent any weather packets the latest 1 day(s).
| Time | Temp. | Humidity | Pressure | Rain* | Wind** | Luminosity | Snow |
|---|---|---|---|---|---|---|---|
| 1778052964 | 30° C | 95% | - | 0 mm | - | 0 W/m² | - |
| 1778049359 | 31.67° C | 95% | - | 0 mm | - | 0 W/m² | - |
| 1778047557 | 35° C | 16% | - | 0 mm | - | 0 W/m² | - |
| 1778046956 | 33.89° C | 24% | - | 0 mm | - | 0 W/m² | - |
| 1778045755 | 33.89° C | 19% | - | 0 mm | - | 0 W/m² | - |
| 1778044554 | 32.78° C | 55% | - | 0 mm | - | 0 W/m² | - |
| 1778042151 | 35° C | 24% | - | 0 mm | - | 0 W/m² | - |
| 1778041550 | 32.78° C | 46% | - | 0 mm | - | 0 W/m² | - |
| 1778040348 | 31.67° C | 71% | - | 0 mm | - | 0 W/m² | - |
| 1778039748 | 31.67° C | 95% | - | 0 mm | - | 0 W/m² | - |
| 1778039147 | 31.67° C | 95% | - | 0 mm | - | 0 W/m² | - |
| 1778037945 | 32.78° C | 95% | - | 0 mm | - | 0 W/m² | - |
| 1778037344 | 30.56° C | 95% | - | 0 mm | - | 0 W/m² | - |
| 1778036743 | 31.67° C | 95% | - | 0 mm | - | 0 W/m² | - |
| 1778035541 | 32.78° C | 95% | - | 0 mm | - | 0 W/m² | - |
| 1778034340 | 32.78° C | 95% | - | 0 mm | - | 0 W/m² | - |
| 1778033739 | 31.67° C | 95% | - | 0 mm | - | 0 W/m² | - |
| 1778033139 | 30.56° C | 95% | - | 0 mm | - | 0 W/m² | - |
| 1778032538 | 30° C | 95% | - | 0 mm | - | 0 W/m² | - |
| 1778031337 | 30° C | 95% | - | 0 mm | - | 0 W/m² | - |
| 1778029535 | 28.89° C | 95% | - | 0 mm | - | 0 W/m² | - |
| 1778026532 | 27.78° C | 95% | - | 0 mm | - | 0 W/m² | - |
| 1778022928 | 27.78° C | 95% | - | 0 mm | - | 0 W/m² | - |
| 1778019924 | 26.67° C | 95% | - | 0 mm | - | 0 W/m² | - |
| 1778016920 | 27.78° C | 95% | - | 0 mm | - | 0 W/m² | - |
* Rain latest hour (hover to see other rain measurements)
** Current wind speed in m/s (hover to see current wind gust speed)